sensor_id;sensor_type;location;lat;lon;timestamp;temperature;humidity
7155;DHT22;3619;53.784;10.440;2023-09-18T00:00:25;19.50;99.90
7155;DHT22;3619;53.784;10.440;2023-09-18T00:02:52;19.50;99.90
7155;DHT22;3619;53.784;10.440;2023-09-18T00:05:19;19.40;99.90
7155;DHT22;3619;53.784;10.440;2023-09-18T00:07:46;19.50;99.90
7155;DHT22;3619;53.784;10.440;2023-09-18T00:10:13;19.50;99.90
7155;DHT22;3619;53.784;10.440;2023-09-18T00:12:41;19.50;99.90
7155;DHT22;3619;53.784;10.440;2023-09-18T00:15:09;19.40;99.90
7155;DHT22;3619;53.784;10.440;2023-09-18T00:17:36;19.50;99.90
7155;DHT22;3619;53.784;10.440;2023-09-18T00:20:03;19.50;99.90
7155;DHT22;3619;53.784;10.440;2023-09-18T00:22:32;19.40;99.90
7155;DHT22;3619;53.784;10.440;2023-09-18T00:24:59;19.40;99.90
7155;DHT22;3619;53.784;10.440;2023-09-18T00:27:26;19.30;99.90
7155;DHT22;3619;53.784;10.440;2023-09-18T00:29:55;19.30;99.90
7155;DHT22;3619;53.784;10.440;2023-09-18T00:32:22;19.30;99.90
7155;DHT22;3619;53.784;10.440;2023-09-18T00:34:49;19.30;99.90
7155;DHT22;3619;53.784;10.440;2023-09-18T00:37:16;19.20;99.90
7155;DHT22;3619;53.784;10.440;2023-09-18T00:39:44;19.20;99.90
7155;DHT22;3619;53.784;10.440;2023-09-18T00:42:10;19.20;99.90
7155;DHT22;3619;53.784;10.440;2023-09-18T00:44:39;19.20;99.90
7155;DHT22;3619;53.784;10.440;2023-09-18T00:47:08;19.20;99.90
7155;DHT22;3619;53.784;10.440;2023-09-18T00:49:36;19.10;99.90
7155;DHT22;3619;53.784;10.440;2023-09-18T00:52:04;19.10;99.90
7155;DHT22;3619;53.784;10.440;2023-09-18T00:54:33;19.10;99.90
7155;DHT22;3619;53.784;10.440;2023-09-18T00:57:03;19.00;99.90
7155;DHT22;3619;53.784;10.440;2023-09-18T00:59:30;19.00;99.90
7155;DHT22;3619;53.784;10.440;2023-09-18T01:01:57;19.00;99.90
7155;DHT22;3619;53.784;10.440;2023-09-18T01:04:26;19.00;99.90
7155;DHT22;3619;53.784;10.440;2023-09-18T01:06:55;19.00;99.90
7155;DHT22;3619;53.784;10.440;2023-09-18T01:09:22;19.00;99.90
7155;DHT22;3619;53.784;10.440;2023-09-18T01:11:57;19.00;99.90
7155;DHT22;3619;53.784;10.440;2023-09-18T01:14:31;18.90;99.90
7155;DHT22;3619;53.784;10.440;2023-09-18T01:17:00;18.90;99.90
7155;DHT22;3619;53.784;10.440;2023-09-18T01:19:41;18.90;99.90
7155;DHT22;3619;53.784;10.440;2023-09-18T01:22:10;18.90;99.90
7155;DHT22;3619;53.784;10.440;2023-09-18T01:24:39;18.90;99.90
7155;DHT22;3619;53.784;10.440;2023-09-18T01:27:08;18.80;99.90
7155;DHT22;3619;53.784;10.440;2023-09-18T01:29:35;18.90;99.90
7155;DHT22;3619;53.784;10.440;2023-09-18T01:32:03;18.80;99.90
7155;DHT22;3619;53.784;10.440;2023-09-18T01:34:32;18.80;99.90
7155;DHT22;3619;53.784;10.440;2023-09-18T01:37:03;18.80;99.90
7155;DHT22;3619;53.784;10.440;2023-09-18T01:39:32;18.80;99.90
7155;DHT22;3619;53.784;10.440;2023-09-18T01:42:01;18.80;99.90
7155;DHT22;3619;53.784;10.440;2023-09-18T01:44:28;18.80;99.90
7155;DHT22;3619;53.784;10.440;2023-09-18T01:46:57;18.80;99.90
7155;DHT22;3619;53.784;10.440;2023-09-18T01:49:28;18.80;99.90
7155;DHT22;3619;53.784;10.440;2023-09-18T01:51:55;18.80;99.90
7155;DHT22;3619;53.784;10.440;2023-09-18T01:54:22;18.80;99.90
7155;DHT22;3619;53.784;10.440;2023-09-18T01:56:49;18.80;99.90
7155;DHT22;3619;53.784;10.440;2023-09-18T01:59:18;18.70;99.90
7155;DHT22;3619;53.784;10.440;2023-09-18T02:01:45;18.70;99.90
7155;DHT22;3619;53.784;10.440;2023-09-18T02:04:12;18.70;99.90
7155;DHT22;3619;53.784;10.440;2023-09-18T02:06:38;18.60;99.90
7155;DHT22;3619;53.784;10.440;2023-09-18T02:09:06;18.60;99.90
7155;DHT22;3619;53.784;10.440;2023-09-18T02:11:34;18.60;99.90
7155;DHT22;3619;53.784;10.440;2023-09-18T02:14:03;18.60;99.90
7155;DHT22;3619;53.784;10.440;2023-09-18T02:16:32;18.50;99.90
7155;DHT22;3619;53.784;10.440;2023-09-18T02:18:59;18.50;99.90
7155;DHT22;3619;53.784;10.440;2023-09-18T02:21:26;18.50;99.90
7155;DHT22;3619;53.784;10.440;2023-09-18T02:23:53;18.50;99.90
7155;DHT22;3619;53.784;10.440;2023-09-18T02:26:21;18.40;99.90
7155;DHT22;3619;53.784;10.440;2023-09-18T02:28:48;18.40;99.90
7155;DHT22;3619;53.784;10.440;2023-09-18T02:31:15;18.40;99.90
7155;DHT22;3619;53.784;10.440;2023-09-18T02:33:44;18.40;99.90
7155;DHT22;3619;53.784;10.440;2023-09-18T02:36:12;18.30;99.90
7155;DHT22;3619;53.784;10.440;2023-09-18T02:38:39;18.30;99.90
7155;DHT22;3619;53.784;10.440;2023-09-18T02:41:06;18.30;99.90
7155;DHT22;3619;53.784;10.440;2023-09-18T02:43:32;18.20;99.90
7155;DHT22;3619;53.784;10.440;2023-09-18T02:45:59;18.20;99.90
7155;DHT22;3619;53.784;10.440;2023-09-18T02:48:27;18.10;99.90
7155;DHT22;3619;53.784;10.440;2023-09-18T02:50:56;18.10;99.90
7155;DHT22;3619;53.784;10.440;2023-09-18T02:53:24;18.10;99.90
7155;DHT22;3619;53.784;10.440;2023-09-18T02:55:52;18.10;99.90
7155;DHT22;3619;53.784;10.440;2023-09-18T02:58:20;18.10;99.90
7155;DHT22;3619;53.784;10.440;2023-09-18T03:00:48;18.00;99.90
7155;DHT22;3619;53.784;10.440;2023-09-18T03:03:16;18.00;99.90
7155;DHT22;3619;53.784;10.440;2023-09-18T03:05:44;18.00;99.90
7155;DHT22;3619;53.784;10.440;2023-09-18T03:08:13;18.10;99.90
7155;DHT22;3619;53.784;10.440;2023-09-18T03:10:41;18.00;99.90
7155;DHT22;3619;53.784;10.440;2023-09-18T03:13:09;18.10;99.90
7155;DHT22;3619;53.784;10.440;2023-09-18T03:15:37;18.10;99.90
7155;DHT22;3619;53.784;10.440;2023-09-18T03:18:06;18.10;99.90
7155;DHT22;3619;53.784;10.440;2023-09-18T03:20:33;18.10;99.90
7155;DHT22;3619;53.784;10.440;2023-09-18T03:23:01;18.10;99.90
7155;DHT22;3619;53.784;10.440;2023-09-18T03:25:30;18.10;99.90
7155;DHT22;3619;53.784;10.440;2023-09-18T03:27:57;18.00;99.90
7155;DHT22;3619;53.784;10.440;2023-09-18T03:30:24;18.00;99.90
7155;DHT22;3619;53.784;10.440;2023-09-18T03:32:52;18.00;99.90
7155;DHT22;3619;53.784;10.440;2023-09-18T03:35:20;18.00;99.90
7155;DHT22;3619;53.784;10.440;2023-09-18T03:37:47;18.00;99.90
7155;DHT22;3619;53.784;10.440;2023-09-18T03:40:17;18.00;99.90
7155;DHT22;3619;53.784;10.440;2023-09-18T03:42:46;18.00;99.90
7155;DHT22;3619;53.784;10.440;2023-09-18T03:45:14;18.00;99.90
7155;DHT22;3619;53.784;10.440;2023-09-18T03:47:43;17.90;99.90
7155;DHT22;3619;53.784;10.440;2023-09-18T03:50:10;18.00;99.90
7155;DHT22;3619;53.784;10.440;2023-09-18T03:52:38;18.00;99.90
7155;DHT22;3619;53.784;10.440;2023-09-18T03:55:05;17.90;99.90
7155;DHT22;3619;53.784;10.440;2023-09-18T03:57:32;17.90;99.90
7155;DHT22;3619;53.784;10.440;2023-09-18T04:00:00;18.00;99.90
7155;DHT22;3619;53.784;10.440;2023-09-18T04:02:28;17.90;99.90
7155;DHT22;3619;53.784;10.440;2023-09-18T04:04:55;17.90;99.90
7155;DHT22;3619;53.784;10.440;2023-09-18T04:07:22;17.90;99.90
7155;DHT22;3619;53.784;10.440;2023-09-18T04:09:49;17.90;99.90
7155;DHT22;3619;53.784;10.440;2023-09-18T04:12:15;17.80;99.90
7155;DHT22;3619;53.784;10.440;2023-09-18T04:14:44;17.80;99.90
7155;DHT22;3619;53.784;10.440;2023-09-18T04:17:15;17.80;99.90
7155;DHT22;3619;53.784;10.440;2023-09-18T04:19:45;17.80;99.90
7155;DHT22;3619;53.784;10.440;2023-09-18T04:22:13;17.80;99.90
7155;DHT22;3619;53.784;10.440;2023-09-18T04:24:40;17.80;99.90
7155;DHT22;3619;53.784;10.440;2023-09-18T04:27:07;17.70;99.90
7155;DHT22;3619;53.784;10.440;2023-09-18T04:29:34;17.70;99.90
7155;DHT22;3619;53.784;10.440;2023-09-18T04:32:02;17.70;99.90
7155;DHT22;3619;53.784;10.440;2023-09-18T04:34:33;17.60;99.90
7155;DHT22;3619;53.784;10.440;2023-09-18T04:37:00;17.60;99.90
7155;DHT22;3619;53.784;10.440;2023-09-18T04:39:30;17.60;99.90
7155;DHT22;3619;53.784;10.440;2023-09-18T04:42:01;17.60;99.90
7155;DHT22;3619;53.784;10.440;2023-09-18T04:44:30;17.60;99.90
7155;DHT22;3619;53.784;10.440;2023-09-18T04:46:57;17.60;99.90
7155;DHT22;3619;53.784;10.440;2023-09-18T04:49:25;17.60;99.90
7155;DHT22;3619;53.784;10.440;2023-09-18T04:51:54;17.60;99.90
7155;DHT22;3619;53.784;10.440;2023-09-18T04:54:21;17.50;99.90
7155;DHT22;3619;53.784;10.440;2023-09-18T04:56:48;17.50;99.90
7155;DHT22;3619;53.784;10.440;2023-09-18T04:59:15;17.50;99.90
7155;DHT22;3619;53.784;10.440;2023-09-18T05:01:41;17.60;99.90
7155;DHT22;3619;53.784;10.440;2023-09-18T05:04:09;17.60;99.90
7155;DHT22;3619;53.784;10.440;2023-09-18T05:06:36;17.60;99.90
7155;DHT22;3619;53.784;10.440;2023-09-18T05:09:05;17.60;99.90
7155;DHT22;3619;53.784;10.440;2023-09-18T05:11:32;17.60;99.90
7155;DHT22;3619;53.784;10.440;2023-09-18T05:13:59;17.60;99.90
7155;DHT22;3619;53.784;10.440;2023-09-18T05:16:26;17.50;99.90
7155;DHT22;3619;53.784;10.440;2023-09-18T05:18:54;17.50;99.90
7155;DHT22;3619;53.784;10.440;2023-09-18T05:21:21;17.50;99.90
7155;DHT22;3619;53.784;10.440;2023-09-18T05:23:50;17.60;99.90
7155;DHT22;3619;53.784;10.440;2023-09-18T05:26:19;17.60;99.90
7155;DHT22;3619;53.784;10.440;2023-09-18T05:28:48;17.60;99.90
7155;DHT22;3619;53.784;10.440;2023-09-18T05:31:16;17.70;99.90
7155;DHT22;3619;53.784;10.440;2023-09-18T05:33:43;17.70;99.90
7155;DHT22;3619;53.784;10.440;2023-09-18T05:36:10;17.80;99.90
7155;DHT22;3619;53.784;10.440;2023-09-18T05:38:37;17.80;99.90
7155;DHT22;3619;53.784;10.440;2023-09-18T05:41:03;17.80;99.90
7155;DHT22;3619;53.784;10.440;2023-09-18T05:43:32;17.90;99.90
7155;DHT22;3619;53.784;10.440;2023-09-18T05:46:01;17.90;99.90
7155;DHT22;3619;53.784;10.440;2023-09-18T05:48:28;17.80;99.90
7155;DHT22;3619;53.784;10.440;2023-09-18T05:50:55;17.90;99.90
7155;DHT22;3619;53.784;10.440;2023-09-18T05:53:21;17.90;99.90
7155;DHT22;3619;53.784;10.440;2023-09-18T05:55:48;17.90;99.90
7155;DHT22;3619;53.784;10.440;2023-09-18T05:58:15;17.90;99.90
7155;DHT22;3619;53.784;10.440;2023-09-18T06:00:45;18.00;99.90
7155;DHT22;3619;53.784;10.440;2023-09-18T06:03:12;18.00;99.90
7155;DHT22;3619;53.784;10.440;2023-09-18T06:05:40;18.00;99.90
7155;DHT22;3619;53.784;10.440;2023-09-18T06:08:07;18.10;99.90
7155;DHT22;3619;53.784;10.440;2023-09-18T06:10:34;18.20;99.90
7155;DHT22;3619;53.784;10.440;2023-09-18T06:13:02;18.20;99.90
7155;DHT22;3619;53.784;10.440;2023-09-18T06:15:31;18.20;99.90
7155;DHT22;3619;53.784;10.440;2023-09-18T06:17:59;18.20;99.90
7155;DHT22;3619;53.784;10.440;2023-09-18T06:20:26;18.30;99.90
7155;DHT22;3619;53.784;10.440;2023-09-18T06:22:53;18.30;99.90
7155;DHT22;3619;53.784;10.440;2023-09-18T06:25:20;18.30;99.90
7155;DHT22;3619;53.784;10.440;2023-09-18T06:27:47;18.30;99.90
7155;DHT22;3619;53.784;10.440;2023-09-18T06:30:14;18.40;99.90
7155;DHT22;3619;53.784;10.440;2023-09-18T06:32:41;18.50;99.90
7155;DHT22;3619;53.784;10.440;2023-09-18T06:35:09;18.70;99.90
7155;DHT22;3619;53.784;10.440;2023-09-18T06:37:36;18.90;99.90
7155;DHT22;3619;53.784;10.440;2023-09-18T06:40:03;19.00;99.90
7155;DHT22;3619;53.784;10.440;2023-09-18T06:42:31;19.20;99.90
7155;DHT22;3619;53.784;10.440;2023-09-18T06:44:58;19.30;99.90
7155;DHT22;3619;53.784;10.440;2023-09-18T06:47:26;19.40;99.90
7155;DHT22;3619;53.784;10.440;2023-09-18T06:49:55;19.50;99.90
7155;DHT22;3619;53.784;10.440;2023-09-18T06:52:23;19.70;99.90
7155;DHT22;3619;53.784;10.440;2023-09-18T06:54:50;19.90;99.90
7155;DHT22;3619;53.784;10.440;2023-09-18T06:57:17;19.90;99.90
7155;DHT22;3619;53.784;10.440;2023-09-18T06:59:46;20.00;99.90
7155;DHT22;3619;53.784;10.440;2023-09-18T07:02:13;20.20;99.90
7155;DHT22;3619;53.784;10.440;2023-09-18T07:04:40;20.30;99.90
7155;DHT22;3619;53.784;10.440;2023-09-18T07:07:10;20.30;99.90
7155;DHT22;3619;53.784;10.440;2023-09-18T07:09:39;20.40;99.90
7155;DHT22;3619;53.784;10.440;2023-09-18T07:12:07;20.40;99.90
7155;DHT22;3619;53.784;10.440;2023-09-18T07:14:36;20.50;99.90
7155;DHT22;3619;53.784;10.440;2023-09-18T07:17:03;20.60;99.90
7155;DHT22;3619;53.784;10.440;2023-09-18T07:19:30;20.80;99.90
7155;DHT22;3619;53.784;10.440;2023-09-18T07:21:57;20.70;99.90
7155;DHT22;3619;53.784;10.440;2023-09-18T07:24:24;20.70;99.90
7155;DHT22;3619;53.784;10.440;2023-09-18T07:26:53;20.70;99.90
7155;DHT22;3619;53.784;10.440;2023-09-18T07:29:20;20.70;99.90
7155;DHT22;3619;53.784;10.440;2023-09-18T07:31:47;20.80;99.90
7155;DHT22;3619;53.784;10.440;2023-09-18T07:34:14;20.90;99.90
7155;DHT22;3619;53.784;10.440;2023-09-18T07:36:43;21.10;99.90
7155;DHT22;3619;53.784;10.440;2023-09-18T07:39:10;21.30;99.90
7155;DHT22;3619;53.784;10.440;2023-09-18T07:41:37;21.60;99.90
7155;DHT22;3619;53.784;10.440;2023-09-18T07:44:06;21.90;99.90
7155;DHT22;3619;53.784;10.440;2023-09-18T07:46:33;22.20;99.90
7155;DHT22;3619;53.784;10.440;2023-09-18T07:48:59;22.50;99.90
7155;DHT22;3619;53.784;10.440;2023-09-18T07:51:28;22.80;99.90
7155;DHT22;3619;53.784;10.440;2023-09-18T07:53:58;23.00;99.90
7155;DHT22;3619;53.784;10.440;2023-09-18T07:56:25;23.00;99.90
7155;DHT22;3619;53.784;10.440;2023-09-18T07:58:53;23.10;99.90
7155;DHT22;3619;53.784;10.440;2023-09-18T08:01:21;22.90;99.90
7155;DHT22;3619;53.784;10.440;2023-09-18T08:03:48;22.90;99.90
7155;DHT22;3619;53.784;10.440;2023-09-18T08:06:15;22.80;99.90
7155;DHT22;3619;53.784;10.440;2023-09-18T08:08:44;22.80;99.90
7155;DHT22;3619;53.784;10.440;2023-09-18T08:11:11;22.80;99.90
7155;DHT22;3619;53.784;10.440;2023-09-18T08:13:38;22.90;99.90
7155;DHT22;3619;53.784;10.440;2023-09-18T08:16:07;22.90;99.90
7155;DHT22;3619;53.784;10.440;2023-09-18T08:18:35;22.90;99.90
7155;DHT22;3619;53.784;10.440;2023-09-18T08:21:06;22.90;99.90
7155;DHT22;3619;53.784;10.440;2023-09-18T08:23:34;22.80;99.90
7155;DHT22;3619;53.784;10.440;2023-09-18T08:26:02;22.70;99.90
7155;DHT22;3619;53.784;10.440;2023-09-18T08:28:29;22.60;99.90
7155;DHT22;3619;53.784;10.440;2023-09-18T08:30:56;22.50;99.90
7155;DHT22;3619;53.784;10.440;2023-09-18T08:33:25;22.40;99.90
7155;DHT22;3619;53.784;10.440;2023-09-18T08:35:53;22.40;99.90
7155;DHT22;3619;53.784;10.440;2023-09-18T08:38:19;22.30;99.90
7155;DHT22;3619;53.784;10.440;2023-09-18T08:40:46;22.30;99.90
7155;DHT22;3619;53.784;10.440;2023-09-18T08:43:15;22.20;99.90
7155;DHT22;3619;53.784;10.440;2023-09-18T08:45:46;22.20;99.90
7155;DHT22;3619;53.784;10.440;2023-09-18T08:48:16;22.10;99.90
7155;DHT22;3619;53.784;10.440;2023-09-18T08:50:43;22.10;99.90
7155;DHT22;3619;53.784;10.440;2023-09-18T08:53:12;22.10;99.90
7155;DHT22;3619;53.784;10.440;2023-09-18T08:55:40;22.10;99.90
7155;DHT22;3619;53.784;10.440;2023-09-18T08:58:07;22.20;99.90
7155;DHT22;3619;53.784;10.440;2023-09-18T09:00:36;22.20;99.90
7155;DHT22;3619;53.784;10.440;2023-09-18T09:03:04;22.30;99.90
7155;DHT22;3619;53.784;10.440;2023-09-18T09:05:31;22.30;99.90
7155;DHT22;3619;53.784;10.440;2023-09-18T09:07:58;22.20;99.90
7155;DHT22;3619;53.784;10.440;2023-09-18T09:10:29;22.20;99.90
7155;DHT22;3619;53.784;10.440;2023-09-18T09:12:57;22.10;99.90
7155;DHT22;3619;53.784;10.440;2023-09-18T09:15:26;22.10;99.90
7155;DHT22;3619;53.784;10.440;2023-09-18T09:18:03;22.10;99.90
7155;DHT22;3619;53.784;10.440;2023-09-18T09:20:30;22.10;99.90
7155;DHT22;3619;53.784;10.440;2023-09-18T09:23:01;22.10;99.90
7155;DHT22;3619;53.784;10.440;2023-09-18T09:25:30;22.20;99.90
7155;DHT22;3619;53.784;10.440;2023-09-18T09:27:58;22.30;99.90
7155;DHT22;3619;53.784;10.440;2023-09-18T09:30:27;22.30;99.90
7155;DHT22;3619;53.784;10.440;2023-09-18T09:32:56;22.30;99.90
7155;DHT22;3619;53.784;10.440;2023-09-18T09:35:25;22.30;99.90
7155;DHT22;3619;53.784;10.440;2023-09-18T09:37:55;22.20;99.90
7155;DHT22;3619;53.784;10.440;2023-09-18T09:40:23;22.10;99.90
7155;DHT22;3619;53.784;10.440;2023-09-18T09:42:56;22.10;99.90
7155;DHT22;3619;53.784;10.440;2023-09-18T09:45:28;22.10;99.90
7155;DHT22;3619;53.784;10.440;2023-09-18T09:47:57;22.10;99.90
7155;DHT22;3619;53.784;10.440;2023-09-18T09:50:24;22.10;99.90
7155;DHT22;3619;53.784;10.440;2023-09-18T09:52:53;22.20;99.90
7155;DHT22;3619;53.784;10.440;2023-09-18T09:55:22;22.30;99.90
7155;DHT22;3619;53.784;10.440;2023-09-18T09:57:51;22.40;99.90
7155;DHT22;3619;53.784;10.440;2023-09-18T10:00:20;22.40;99.90
7155;DHT22;3619;53.784;10.440;2023-09-18T10:02:57;22.50;99.90
7155;DHT22;3619;53.784;10.440;2023-09-18T10:05:27;22.70;99.90
7155;DHT22;3619;53.784;10.440;2023-09-18T10:07:57;22.60;99.90
7155;DHT22;3619;53.784;10.440;2023-09-18T10:10:29;22.60;99.90
7155;DHT22;3619;53.784;10.440;2023-09-18T10:12:57;22.50;99.90
7155;DHT22;3619;53.784;10.440;2023-09-18T10:15:29;22.60;99.90
7155;DHT22;3619;53.784;10.440;2023-09-18T10:18:00;22.60;99.90
7155;DHT22;3619;53.784;10.440;2023-09-18T10:20:29;22.80;99.90
7155;DHT22;3619;53.784;10.440;2023-09-18T10:23:02;22.80;99.90
7155;DHT22;3619;53.784;10.440;2023-09-18T10:25:31;22.80;99.90
7155;DHT22;3619;53.784;10.440;2023-09-18T10:27:59;22.80;99.90
7155;DHT22;3619;53.784;10.440;2023-09-18T10:30:32;22.80;99.90
7155;DHT22;3619;53.784;10.440;2023-09-18T10:33:03;22.80;99.90
7155;DHT22;3619;53.784;10.440;2023-09-18T10:35:34;22.80;99.90
7155;DHT22;3619;53.784;10.440;2023-09-18T10:38:02;22.80;99.90
7155;DHT22;3619;53.784;10.440;2023-09-18T10:40:33;22.70;99.90
7155;DHT22;3619;53.784;10.440;2023-09-18T10:43:02;22.60;99.90
7155;DHT22;3619;53.784;10.440;2023-09-18T10:45:36;22.50;99.90
7155;DHT22;3619;53.784;10.440;2023-09-18T10:48:05;22.60;99.90
7155;DHT22;3619;53.784;10.440;2023-09-18T10:50:34;22.50;99.90
7155;DHT22;3619;53.784;10.440;2023-09-18T10:53:03;22.70;99.90
7155;DHT22;3619;53.784;10.440;2023-09-18T10:55:30;22.80;99.90
7155;DHT22;3619;53.784;10.440;2023-09-18T10:58:00;22.90;99.90
7155;DHT22;3619;53.784;10.440;2023-09-18T11:00:28;22.90;99.90
7155;DHT22;3619;53.784;10.440;2023-09-18T11:03:11;23.00;99.90
7155;DHT22;3619;53.784;10.440;2023-09-18T11:05:39;23.20;99.90
7155;DHT22;3619;53.784;10.440;2023-09-18T11:08:28;23.40;99.90
7155;DHT22;3619;53.784;10.440;2023-09-18T11:10:57;23.50;99.90
7155;DHT22;3619;53.784;10.440;2023-09-18T11:13:33;23.60;99.90
7155;DHT22;3619;53.784;10.440;2023-09-18T11:16:01;23.60;99.90
7155;DHT22;3619;53.784;10.440;2023-09-18T11:18:33;23.60;99.90
7155;DHT22;3619;53.784;10.440;2023-09-18T11:21:08;23.50;99.90
7155;DHT22;3619;53.784;10.440;2023-09-18T11:23:36;23.50;99.90
7155;DHT22;3619;53.784;10.440;2023-09-18T11:26:07;23.40;99.90
7155;DHT22;3619;53.784;10.440;2023-09-18T11:28:34;23.30;99.90
7155;DHT22;3619;53.784;10.440;2023-09-18T11:31:03;23.30;99.90
7155;DHT22;3619;53.784;10.440;2023-09-18T11:33:35;23.30;99.90
7155;DHT22;3619;53.784;10.440;2023-09-18T11:36:04;23.20;99.90
7155;DHT22;3619;53.784;10.440;2023-09-18T11:38:33;23.20;99.90
7155;DHT22;3619;53.784;10.440;2023-09-18T11:43:43;23.20;99.90
7155;DHT22;3619;53.784;10.440;2023-09-18T11:46:10;23.30;99.90
7155;DHT22;3619;53.784;10.440;2023-09-18T11:48:41;23.50;99.90
7155;DHT22;3619;53.784;10.440;2023-09-18T11:51:11;23.80;99.90
7155;DHT22;3619;53.784;10.440;2023-09-18T11:53:40;24.00;99.90
7155;DHT22;3619;53.784;10.440;2023-09-18T11:56:10;24.00;99.90
7155;DHT22;3619;53.784;10.440;2023-09-18T11:58:45;24.00;99.90
7155;DHT22;3619;53.784;10.440;2023-09-18T12:01:13;24.00;99.90
7155;DHT22;3619;53.784;10.440;2023-09-18T12:03:42;23.90;99.90
7155;DHT22;3619;53.784;10.440;2023-09-18T12:06:09;23.90;99.90
7155;DHT22;3619;53.784;10.440;2023-09-18T12:08:40;23.90;99.90
7155;DHT22;3619;53.784;10.440;2023-09-18T12:11:07;23.90;99.90
7155;DHT22;3619;53.784;10.440;2023-09-18T12:13:34;24.20;99.90
7155;DHT22;3619;53.784;10.440;2023-09-18T12:16:03;24.40;99.90
7155;DHT22;3619;53.784;10.440;2023-09-18T12:18:31;24.50;99.90
7155;DHT22;3619;53.784;10.440;2023-09-18T12:21:01;24.40;99.90
7155;DHT22;3619;53.784;10.440;2023-09-18T12:23:40;24.00;99.90
7155;DHT22;3619;53.784;10.440;2023-09-18T12:26:09;23.90;99.90
7155;DHT22;3619;53.784;10.440;2023-09-18T12:28:38;23.90;99.90
7155;DHT22;3619;53.784;10.440;2023-09-18T12:31:09;23.80;99.90
7155;DHT22;3619;53.784;10.440;2023-09-18T12:33:37;23.80;99.90
7155;DHT22;3619;53.784;10.440;2023-09-18T12:36:08;23.80;99.90
7155;DHT22;3619;53.784;10.440;2023-09-18T12:38:35;23.80;99.90
7155;DHT22;3619;53.784;10.440;2023-09-18T12:41:03;23.70;99.90
7155;DHT22;3619;53.784;10.440;2023-09-18T12:43:34;23.80;99.90
7155;DHT22;3619;53.784;10.440;2023-09-18T12:46:04;23.80;99.90
7155;DHT22;3619;53.784;10.440;2023-09-18T12:48:36;23.90;99.90
7155;DHT22;3619;53.784;10.440;2023-09-18T12:51:04;23.90;99.90
7155;DHT22;3619;53.784;10.440;2023-09-18T12:53:33;23.80;99.90
7155;DHT22;3619;53.784;10.440;2023-09-18T12:56:08;23.90;99.90
7155;DHT22;3619;53.784;10.440;2023-09-18T12:58:35;23.70;99.90
7155;DHT22;3619;53.784;10.440;2023-09-18T13:01:04;23.90;99.90
7155;DHT22;3619;53.784;10.440;2023-09-18T13:03:35;23.80;99.90
7155;DHT22;3619;53.784;10.440;2023-09-18T13:06:12;23.80;99.90
7155;DHT22;3619;53.784;10.440;2023-09-18T13:08:45;23.70;99.90
7155;DHT22;3619;53.784;10.440;2023-09-18T13:11:12;23.70;99.90
7155;DHT22;3619;53.784;10.440;2023-09-18T13:13:41;23.70;99.90
7155;DHT22;3619;53.784;10.440;2023-09-18T13:16:09;23.70;99.90
7155;DHT22;3619;53.784;10.440;2023-09-18T13:18:39;23.80;99.90
7155;DHT22;3619;53.784;10.440;2023-09-18T13:21:09;23.80;99.90
7155;DHT22;3619;53.784;10.440;2023-09-18T13:23:37;23.80;99.90
7155;DHT22;3619;53.784;10.440;2023-09-18T13:26:07;23.70;99.90
7155;DHT22;3619;53.784;10.440;2023-09-18T13:28:36;23.70;99.90
7155;DHT22;3619;53.784;10.440;2023-09-18T13:31:05;23.80;99.90
7155;DHT22;3619;53.784;10.440;2023-09-18T13:33:38;24.00;99.90
7155;DHT22;3619;53.784;10.440;2023-09-18T13:36:06;24.60;99.90
7155;DHT22;3619;53.784;10.440;2023-09-18T13:38:33;24.80;99.90
7155;DHT22;3619;53.784;10.440;2023-09-18T13:41:00;24.80;99.90
7155;DHT22;3619;53.784;10.440;2023-09-18T13:43:31;24.70;99.90
7155;DHT22;3619;53.784;10.440;2023-09-18T13:46:05;24.40;99.90
7155;DHT22;3619;53.784;10.440;2023-09-18T13:48:34;24.40;99.90
7155;DHT22;3619;53.784;10.440;2023-09-18T13:51:02;24.40;99.90
7155;DHT22;3619;53.784;10.440;2023-09-18T13:53:29;24.30;99.90
7155;DHT22;3619;53.784;10.440;2023-09-18T13:55:56;24.10;99.90
7155;DHT22;3619;53.784;10.440;2023-09-18T13:59:02;23.90;99.90
7155;DHT22;3619;53.784;10.440;2023-09-18T14:01:43;23.80;99.90
7155;DHT22;3619;53.784;10.440;2023-09-18T14:04:26;23.70;99.90
7155;DHT22;3619;53.784;10.440;2023-09-18T14:06:54;23.70;99.90
7155;DHT22;3619;53.784;10.440;2023-09-18T14:09:28;23.60;99.90
7155;DHT22;3619;53.784;10.440;2023-09-18T14:11:58;23.60;99.90
7155;DHT22;3619;53.784;10.440;2023-09-18T14:14:35;23.50;99.90
7155;DHT22;3619;53.784;10.440;2023-09-18T14:17:02;23.50;99.90
7155;DHT22;3619;53.784;10.440;2023-09-18T14:19:33;23.40;99.90
7155;DHT22;3619;53.784;10.440;2023-09-18T14:22:01;23.40;99.90
7155;DHT22;3619;53.784;10.440;2023-09-18T14:24:29;23.40;99.90
7155;DHT22;3619;53.784;10.440;2023-09-18T14:26:56;23.30;99.90
7155;DHT22;3619;53.784;10.440;2023-09-18T14:29:24;23.30;99.90
7155;DHT22;3619;53.784;10.440;2023-09-18T14:31:53;23.30;99.90
7155;DHT22;3619;53.784;10.440;2023-09-18T14:34:20;23.30;99.90
7155;DHT22;3619;53.784;10.440;2023-09-18T14:36:47;23.30;99.90
7155;DHT22;3619;53.784;10.440;2023-09-18T14:39:15;23.20;99.90
7155;DHT22;3619;53.784;10.440;2023-09-18T14:41:44;23.20;99.90
7155;DHT22;3619;53.784;10.440;2023-09-18T14:44:12;23.20;99.90
7155;DHT22;3619;53.784;10.440;2023-09-18T14:46:39;23.10;99.90
7155;DHT22;3619;53.784;10.440;2023-09-18T14:49:07;23.10;99.90
7155;DHT22;3619;53.784;10.440;2023-09-18T14:51:35;23.00;99.90
7155;DHT22;3619;53.784;10.440;2023-09-18T14:54:02;23.10;99.90
7155;DHT22;3619;53.784;10.440;2023-09-18T14:56:30;23.00;99.90
7155;DHT22;3619;53.784;10.440;2023-09-18T14:58:57;23.10;99.90
7155;DHT22;3619;53.784;10.440;2023-09-18T15:01:24;23.40;99.90
7155;DHT22;3619;53.784;10.440;2023-09-18T15:03:51;23.70;99.90
7155;DHT22;3619;53.784;10.440;2023-09-18T15:06:19;23.80;99.90
7155;DHT22;3619;53.784;10.440;2023-09-18T15:08:46;23.80;99.90
7155;DHT22;3619;53.784;10.440;2023-09-18T15:11:14;23.80;99.90
7155;DHT22;3619;53.784;10.440;2023-09-18T15:13:43;23.70;99.90
7155;DHT22;3619;53.784;10.440;2023-09-18T15:16:09;23.60;99.90
7155;DHT22;3619;53.784;10.440;2023-09-18T15:18:36;23.50;99.90
7155;DHT22;3619;53.784;10.440;2023-09-18T15:21:06;23.60;99.90
7155;DHT22;3619;53.784;10.440;2023-09-18T15:23:42;23.50;99.90
7155;DHT22;3619;53.784;10.440;2023-09-18T15:26:11;23.40;99.90
7155;DHT22;3619;53.784;10.440;2023-09-18T15:28:38;23.20;99.90
7155;DHT22;3619;53.784;10.440;2023-09-18T15:31:06;23.10;99.90
7155;DHT22;3619;53.784;10.440;2023-09-18T15:33:35;22.90;99.90
7155;DHT22;3619;53.784;10.440;2023-09-18T15:36:05;22.90;99.90
7155;DHT22;3619;53.784;10.440;2023-09-18T15:38:34;23.00;99.90
7155;DHT22;3619;53.784;10.440;2023-09-18T15:41:01;23.00;99.90
7155;DHT22;3619;53.784;10.440;2023-09-18T15:43:28;23.00;99.90
7155;DHT22;3619;53.784;10.440;2023-09-18T15:45:56;23.00;99.90
7155;DHT22;3619;53.784;10.440;2023-09-18T15:48:24;22.90;99.90
7155;DHT22;3619;53.784;10.440;2023-09-18T15:50:53;22.90;99.90
7155;DHT22;3619;53.784;10.440;2023-09-18T15:53:23;22.80;99.90
7155;DHT22;3619;53.784;10.440;2023-09-18T15:55:53;22.80;99.90